createdAt,value
2023-03-09T00:00:59.396Z,62.48
2023-03-09T00:04:01.153Z,62.60
2023-03-09T00:07:02.613Z,62.59
2023-03-09T00:10:04.191Z,62.49
2023-03-09T00:13:05.094Z,62.48
2023-03-09T00:16:09.903Z,62.43
2023-03-09T00:19:10.876Z,62.42
2023-03-09T00:22:11.790Z,62.44
2023-03-09T00:25:13.966Z,62.43
2023-03-09T00:28:14.868Z,62.47
2023-03-09T00:31:15.830Z,62.31
2023-03-09T00:34:17.076Z,62.39
2023-03-09T00:37:18.024Z,62.33
2023-03-09T00:40:19.563Z,62.39
2023-03-09T00:43:20.569Z,62.41
2023-03-09T00:46:21.635Z,62.49
2023-03-09T00:49:22.526Z,62.45
2023-03-09T00:52:23.411Z,62.46
2023-03-09T00:55:24.410Z,62.66
2023-03-09T00:58:25.309Z,62.74
2023-03-09T01:01:26.720Z,62.74
2023-03-09T01:04:27.700Z,62.77
2023-03-09T01:07:30.230Z,62.89
2023-03-09T01:10:31.109Z,62.93
2023-03-09T01:13:32.322Z,62.79
2023-03-09T01:16:33.220Z,62.76
2023-03-09T01:19:34.452Z,62.76
2023-03-09T01:22:35.402Z,62.67
2023-03-09T01:25:39.298Z,62.76
2023-03-09T01:28:41.409Z,62.67
2023-03-09T01:31:42.452Z,62.69
2023-03-09T01:34:43.405Z,62.62
2023-03-09T01:37:45.225Z,62.62
2023-03-09T01:40:47.518Z,62.68
2023-03-09T01:43:50.309Z,62.72
2023-03-09T01:46:55.169Z,62.70
2023-03-09T01:49:56.215Z,62.71
2023-03-09T01:53:02.029Z,62.74
2023-03-09T01:56:03.102Z,63.00
2023-03-09T01:59:05.899Z,63.04
2023-03-09T02:02:07.710Z,63.22
2023-03-09T02:05:12.663Z,63.31
2023-03-09T02:08:13.935Z,63.46
2023-03-09T02:11:16.862Z,63.54
2023-03-09T02:14:19.645Z,63.55
2023-03-09T02:17:22.242Z,63.56
2023-03-09T02:20:39.738Z,63.53
2023-03-09T02:24:02.341Z,63.58
2023-03-09T02:27:18.645Z,63.52
2023-03-09T02:30:20.618Z,63.52
2023-03-09T02:33:27.050Z,63.48
2023-03-09T02:36:28.560Z,63.56
2023-03-09T02:39:47.259Z,63.45
2023-03-09T02:42:49.011Z,63.49
2023-03-09T02:45:50.716Z,63.68
2023-03-09T02:48:51.790Z,63.78
2023-03-09T02:51:52.916Z,63.94
2023-03-09T02:54:54.279Z,64.23
2023-03-09T02:57:55.580Z,64.33
2023-03-09T03:00:56.536Z,64.48
2023-03-09T03:03:57.578Z,64.60
2023-03-09T03:06:59.078Z,64.59
2023-03-09T03:10:00.438Z,64.59
2023-03-09T03:13:02.023Z,64.61
2023-03-09T03:16:03.730Z,64.51
2023-03-09T03:19:04.984Z,64.52
2023-03-09T03:22:08.810Z,64.46
2023-03-09T03:25:11.045Z,64.39
2023-03-09T03:28:14.398Z,64.57
2023-03-09T03:31:34.239Z,64.43
2023-03-09T03:34:35.593Z,64.51
2023-03-09T03:37:37.394Z,64.57
2023-03-09T03:40:38.408Z,64.67
2023-03-09T03:43:42.742Z,64.67
2023-03-09T03:46:44.644Z,64.75
2023-03-09T03:49:45.634Z,64.80
2023-03-09T03:52:47.912Z,64.94
2023-03-09T03:55:49.518Z,65.03
2023-03-09T03:58:50.648Z,64.99
2023-03-09T04:01:51.871Z,65.06
2023-03-09T04:04:52.928Z,65.16
2023-03-09T04:07:55.052Z,65.04
2023-03-09T04:10:56.164Z,65.09
2023-03-09T04:13:57.278Z,65.07
2023-03-09T04:16:58.199Z,65.06
2023-03-09T04:20:03.895Z,65.06
2023-03-09T04:23:05.196Z,65.01
2023-03-09T04:26:08.277Z,65.10
2023-03-09T04:29:27.516Z,65.09
2023-03-09T04:32:28.575Z,65.09
2023-03-09T04:35:34.718Z,65.16
2023-03-09T04:38:38.864Z,65.17
2023-03-09T04:41:39.905Z,65.02
2023-03-09T04:44:44.948Z,65.16
2023-03-09T04:47:46.038Z,65.07
2023-03-09T04:50:47.084Z,65.10
2023-03-09T04:53:51.020Z,65.23
2023-03-09T04:56:52.958Z,65.20
2023-03-09T04:59:57.957Z,65.22
2023-03-09T05:03:01.397Z,65.11
2023-03-09T05:06:02.567Z,65.35
2023-03-09T05:09:07.511Z,65.33
2023-03-09T05:12:08.718Z,65.30
2023-03-09T05:15:12.563Z,65.40
2023-03-09T05:18:13.635Z,65.49
2023-03-09T05:21:14.885Z,65.47
2023-03-09T05:24:17.751Z,65.65
2023-03-09T05:27:18.736Z,65.76
2023-03-09T05:30:20.627Z,65.83
2023-03-09T05:33:22.238Z,65.89
2023-03-09T05:36:25.418Z,65.87
2023-03-09T05:39:28.009Z,66.00
2023-03-09T05:42:29.022Z,65.97
2023-03-09T05:45:30.049Z,66.06
2023-03-09T05:48:31.015Z,66.01
2023-03-09T05:51:32.602Z,66.14
2023-03-09T05:54:40.335Z,66.11
2023-03-09T05:57:45.604Z,66.18
2023-03-09T06:00:47.221Z,66.23
2023-03-09T06:03:51.981Z,66.37
2023-03-09T06:06:53.706Z,66.38
2023-03-09T06:09:57.078Z,66.33
2023-03-09T06:12:59.962Z,66.55
2023-03-09T06:16:08.992Z,66.64
2023-03-09T06:19:11.089Z,66.85
2023-03-09T06:22:12.957Z,66.87
2023-03-09T06:25:14.755Z,67.02
2023-03-09T06:28:16.708Z,67.02
2023-03-09T06:31:18.751Z,67.15
2023-03-09T06:34:22.275Z,67.29
2023-03-09T06:37:23.325Z,67.32
2023-03-09T06:40:24.823Z,67.35
2023-03-09T06:43:26.182Z,67.49
2023-03-09T06:46:27.881Z,67.34
2023-03-09T06:49:29.017Z,67.39
2023-03-09T06:52:30.670Z,67.53
2023-03-09T06:55:32.047Z,67.44
2023-03-09T06:58:34.068Z,67.65
2023-03-09T07:01:35.212Z,67.66
2023-03-09T07:04:36.530Z,67.66
2023-03-09T07:07:37.497Z,67.74
2023-03-09T07:10:38.390Z,67.71
2023-03-09T07:13:39.301Z,67.72
2023-03-09T07:16:40.195Z,67.61
2023-03-09T07:19:41.534Z,67.61
2023-03-09T07:22:42.391Z,67.61
2023-03-09T07:25:43.292Z,67.67
2023-03-09T07:28:44.177Z,67.60
2023-03-09T07:31:45.139Z,67.65
2023-03-09T07:34:46.112Z,67.53
2023-03-09T07:37:47.114Z,67.39
2023-03-09T07:40:47.935Z,67.23
2023-03-09T07:43:48.878Z,67.19
2023-03-09T07:46:58.982Z,67.11
2023-03-09T07:50:00.283Z,66.98
2023-03-09T07:53:01.260Z,66.88
2023-03-09T07:56:04.170Z,66.61
2023-03-09T07:59:05.084Z,66.38
2023-03-09T08:02:07.232Z,66.12
2023-03-09T08:05:09.793Z,65.84
2023-03-09T08:08:11.954Z,65.73
2023-03-09T08:11:12.855Z,65.56
2023-03-09T08:14:13.757Z,65.37
2023-03-09T08:17:14.633Z,65.24
2023-03-09T08:20:16.425Z,65.20
2023-03-09T08:23:17.380Z,65.03
2023-03-09T08:26:19.609Z,64.84
2023-03-09T08:29:22.485Z,64.65
2023-03-09T08:32:24.418Z,64.41
2023-03-09T08:35:30.711Z,64.24
2023-03-09T08:38:31.622Z,64.00
2023-03-09T08:41:32.576Z,63.96
2023-03-09T08:44:33.508Z,63.68
2023-03-09T08:47:34.720Z,63.57
2023-03-09T08:50:35.671Z,63.29
2023-03-09T08:53:37.902Z,63.07
2023-03-09T08:56:38.852Z,62.81
2023-03-09T08:59:39.788Z,62.63
2023-03-09T09:02:41.572Z,62.54
2023-03-09T09:05:42.617Z,62.30
2023-03-09T09:08:43.523Z,62.14
2023-03-09T09:11:44.574Z,61.90
2023-03-09T09:14:45.435Z,61.44
2023-03-09T09:17:46.540Z,61.05
2023-03-09T09:20:48.371Z,60.75
2023-03-09T09:23:49.837Z,60.40
2023-03-09T09:26:54.446Z,60.03
2023-03-09T09:29:56.532Z,59.68
2023-03-09T09:32:57.737Z,59.33
2023-03-09T09:36:00.644Z,58.95
2023-03-09T09:39:03.119Z,58.59
2023-03-09T09:42:06.345Z,58.12
2023-03-09T09:45:22.299Z,57.67
2023-03-09T09:48:23.254Z,57.37
2023-03-09T09:51:49.320Z,56.92
2023-03-09T09:55:22.814Z,56.74
2023-03-09T09:58:50.128Z,56.38
2023-03-09T10:01:57.180Z,55.93
2023-03-09T10:05:19.852Z,55.87
2023-03-09T10:08:47.451Z,55.59
2023-03-09T10:11:53.218Z,55.45
2023-03-09T10:15:29.410Z,55.03
2023-03-09T10:18:36.529Z,54.79
2023-03-09T10:21:52.326Z,54.48
2023-03-09T10:24:54.652Z,54.36
2023-03-09T10:28:03.133Z,54.24
2023-03-09T10:31:15.841Z,54.14
2023-03-09T10:34:26.773Z,53.98
2023-03-09T10:37:34.636Z,53.67
2023-03-09T10:40:44.629Z,53.49
2023-03-09T10:43:46.279Z,53.25
2023-03-09T10:47:01.098Z,52.97
2023-03-09T10:50:21.964Z,52.91
2023-03-09T10:53:36.210Z,52.47
2023-03-09T10:56:43.218Z,52.35
2023-03-09T10:59:54.866Z,52.23
2023-03-09T11:02:59.419Z,52.32
2023-03-09T11:06:24.341Z,52.35
2023-03-09T11:09:36.874Z,52.11
2023-03-09T11:12:39.726Z,52.00
2023-03-09T11:15:41.353Z,52.03
2023-03-09T11:18:42.564Z,51.88
2023-03-09T11:21:51.889Z,51.62
2023-03-09T11:24:52.879Z,51.51
2023-03-09T11:28:04.061Z,51.40
2023-03-09T11:31:13.558Z,51.01
2023-03-09T11:34:17.404Z,50.98
2023-03-09T11:37:27.401Z,50.55
2023-03-09T11:40:29.710Z,50.25
2023-03-09T11:43:35.186Z,50.12
2023-03-09T11:46:36.876Z,50.20
2023-03-09T11:49:40.764Z,49.94
2023-03-09T11:52:47.877Z,49.69
2023-03-09T11:55:53.057Z,49.44
2023-03-09T11:59:00.095Z,49.35
2023-03-09T12:02:13.184Z,49.33
2023-03-09T12:05:15.761Z,48.82
2023-03-09T12:08:21.322Z,48.79
2023-03-09T12:11:30.692Z,48.76
2023-03-09T12:14:36.290Z,48.69
2023-03-09T12:17:44.711Z,48.57
2023-03-09T12:20:55.086Z,48.60
2023-03-09T12:23:58.178Z,48.52
2023-03-09T12:27:07.359Z,48.46
2023-03-09T12:30:19.573Z,48.13
2023-03-09T12:33:41.987Z,48.00
2023-03-09T12:36:42.818Z,47.76
2023-03-09T12:39:43.820Z,47.84
2023-03-09T12:42:49.296Z,47.75
2023-03-09T12:45:50.963Z,47.33
2023-03-09T12:48:51.884Z,47.32
2023-03-09T12:52:02.779Z,47.45
2023-03-09T12:55:35.950Z,47.29
2023-03-09T12:58:39.680Z,47.16
2023-03-09T13:01:40.606Z,46.94
2023-03-09T13:04:41.607Z,46.69
2023-03-09T13:07:43.281Z,46.70
2023-03-09T13:10:45.221Z,46.49
2023-03-09T13:13:46.361Z,46.52
2023-03-09T13:16:50.137Z,46.47
2023-03-09T13:19:55.409Z,46.32
2023-03-09T13:23:07.142Z,46.07
2023-03-09T13:26:12.920Z,46.17
2023-03-09T13:29:19.852Z,45.87
2023-03-09T13:32:25.143Z,45.82
2023-03-09T13:36:19.762Z,45.59
2023-03-09T13:39:25.205Z,45.26
2023-03-09T13:42:28.174Z,44.97
2023-03-09T13:45:31.257Z,44.92
2023-03-09T13:48:35.707Z,44.66
2023-03-09T13:51:42.085Z,44.38
2023-03-09T13:54:54.955Z,44.42
2023-03-09T13:58:17.286Z,44.44
2023-03-09T14:01:26.529Z,44.40
2023-03-09T14:04:27.462Z,44.13
2023-03-09T14:07:33.100Z,44.20
2023-03-09T14:10:38.879Z,43.97
2023-03-09T14:13:45.829Z,43.90
2023-03-09T14:16:49.125Z,43.77
2023-03-09T14:19:52.071Z,43.56
2023-03-09T14:22:53.636Z,43.43
2023-03-09T14:25:58.463Z,43.20
2023-03-09T14:29:19.732Z,43.00
2023-03-09T14:32:23.966Z,42.96
2023-03-09T14:35:30.618Z,42.89
2023-03-09T14:38:31.518Z,43.12
2023-03-09T14:41:32.367Z,42.72
2023-03-09T14:44:41.739Z,42.54
2023-03-09T14:47:42.702Z,42.47
2023-03-09T14:50:43.801Z,42.37
2023-03-09T14:53:55.405Z,42.28
2023-03-09T14:56:56.253Z,42.30
2023-03-09T14:59:57.130Z,42.30
2023-03-09T15:02:58.094Z,42.41
2023-03-09T15:05:58.966Z,42.29
2023-03-09T15:08:59.896Z,42.20
2023-03-09T15:12:03.153Z,42.12
2023-03-09T15:15:05.506Z,41.90
2023-03-09T15:18:07.786Z,41.94
2023-03-09T15:21:09.687Z,41.65
2023-03-09T15:24:11.256Z,41.57
2023-03-09T15:27:12.543Z,41.32
2023-03-09T15:30:16.477Z,41.12
2023-03-09T15:33:17.400Z,41.08
2023-03-09T15:36:18.313Z,40.95
2023-03-09T15:39:19.160Z,40.73
2023-03-09T15:42:20.081Z,40.83
2023-03-09T15:45:21.417Z,40.88
2023-03-09T15:48:22.315Z,40.96
2023-03-09T15:51:23.690Z,41.21
2023-03-09T15:54:24.719Z,41.15
2023-03-09T15:57:25.679Z,41.31
2023-03-09T16:00:29.061Z,41.45
2023-03-09T16:03:31.913Z,41.50
2023-03-09T16:06:32.871Z,41.86
2023-03-09T16:09:33.730Z,42.26
2023-03-09T16:12:34.615Z,42.80
2023-03-09T16:15:35.508Z,43.14
2023-03-09T16:18:36.527Z,43.40
2023-03-09T16:21:37.442Z,43.80
2023-03-09T16:24:38.344Z,44.23
2023-03-09T16:27:39.243Z,44.58
2023-03-09T16:30:40.216Z,44.84
2023-03-09T16:33:41.170Z,45.33
2023-03-09T16:36:42.076Z,45.50
2023-03-09T16:39:45.171Z,45.72
2023-03-09T16:42:46.144Z,46.10
2023-03-09T16:45:53.302Z,46.23
2023-03-09T16:48:54.510Z,46.58
2023-03-09T16:52:13.970Z,46.69
2023-03-09T16:55:20.050Z,46.84
2023-03-09T16:58:20.935Z,47.15
2023-03-09T17:01:21.813Z,47.34
2023-03-09T17:04:23.035Z,47.44
2023-03-09T17:07:24.695Z,47.76
2023-03-09T17:10:26.777Z,47.97
2023-03-09T17:13:27.728Z,48.29
2023-03-09T17:16:28.728Z,48.25
2023-03-09T17:19:29.768Z,48.53
2023-03-09T17:22:30.991Z,48.84
2023-03-09T17:25:32.240Z,48.96
2023-03-09T17:28:34.073Z,49.23
2023-03-09T17:31:34.995Z,49.40
2023-03-09T17:34:36.533Z,49.55
2023-03-09T17:37:38.227Z,49.67
2023-03-09T17:40:47.206Z,49.85
2023-03-09T17:44:02.191Z,50.15
2023-03-09T17:47:03.839Z,50.28
2023-03-09T17:50:06.045Z,50.63
2023-03-09T17:53:07.063Z,50.81
2023-03-09T17:56:09.425Z,51.04
2023-03-09T17:59:10.880Z,51.12
2023-03-09T18:02:13.194Z,51.44
2023-03-09T18:05:14.134Z,51.73
2023-03-09T18:08:15.368Z,51.85
2023-03-09T18:11:28.244Z,52.11
2023-03-09T18:14:29.086Z,52.34
2023-03-09T18:17:29.911Z,52.51
2023-03-09T18:20:30.912Z,52.81
2023-03-09T18:23:31.783Z,52.96
2023-03-09T18:26:36.507Z,53.13
2023-03-09T18:29:37.568Z,53.44
2023-03-09T18:32:38.564Z,53.53
2023-03-09T18:35:43.940Z,53.81
2023-03-09T18:38:46.613Z,53.91
2023-03-09T18:41:47.624Z,54.04
2023-03-09T18:44:48.516Z,54.27
2023-03-09T18:47:49.379Z,54.44
2023-03-09T18:50:54.774Z,54.58
2023-03-09T18:53:55.682Z,54.77
2023-03-09T18:56:56.590Z,54.86
2023-03-09T18:59:57.580Z,55.02
2023-03-09T19:02:59.205Z,55.12
2023-03-09T19:06:02.255Z,55.29
2023-03-09T19:09:03.244Z,55.38
2023-03-09T19:12:04.431Z,55.56
2023-03-09T19:15:05.900Z,55.67
2023-03-09T19:18:06.766Z,55.86
2023-03-09T19:21:12.304Z,55.95
2023-03-09T19:24:13.450Z,56.05
2023-03-09T19:27:14.277Z,56.10
2023-03-09T19:30:15.298Z,56.29
2023-03-09T19:33:16.222Z,56.41
2023-03-09T19:36:19.446Z,56.53
2023-03-09T19:39:22.639Z,56.66
2023-03-09T19:42:23.573Z,56.69
2023-03-09T19:45:24.493Z,56.82
2023-03-09T19:48:26.086Z,56.86
2023-03-09T19:51:32.805Z,56.97
2023-03-09T19:54:33.847Z,57.04
2023-03-09T19:57:34.752Z,57.11
2023-03-09T20:00:36.327Z,57.12
2023-03-09T20:03:37.316Z,57.12
2023-03-09T20:06:41.686Z,57.25
2023-03-09T20:09:42.598Z,57.29
2023-03-09T20:12:43.548Z,57.33
2023-03-09T20:15:44.601Z,57.44
2023-03-09T20:18:45.629Z,57.56
2023-03-09T20:21:47.717Z,57.53
2023-03-09T20:24:48.569Z,57.58
2023-03-09T20:27:49.420Z,57.62
2023-03-09T20:30:50.295Z,57.69
2023-03-09T20:33:51.962Z,57.68
2023-03-09T20:36:53.816Z,57.75
2023-03-09T20:39:55.914Z,57.82
2023-03-09T20:42:57.563Z,57.90
2023-03-09T20:46:02.452Z,57.92
2023-03-09T20:49:03.787Z,58.02
2023-03-09T20:52:04.861Z,58.06
2023-03-09T20:55:07.082Z,58.18
2023-03-09T20:58:08.513Z,58.19
2023-03-09T21:01:21.012Z,58.21
2023-03-09T21:04:21.930Z,58.26
2023-03-09T21:07:22.802Z,58.35
2023-03-09T21:10:23.722Z,58.54
2023-03-09T21:13:24.573Z,58.50
2023-03-09T21:16:25.557Z,58.60
2023-03-09T21:19:26.758Z,58.57
2023-03-09T21:22:27.772Z,58.66
2023-03-09T21:25:29.086Z,58.63
2023-03-09T21:28:52.866Z,58.72
2023-03-09T21:31:53.951Z,58.74
2023-03-09T21:34:54.839Z,58.78
2023-03-09T21:37:55.847Z,58.81
2023-03-09T21:40:59.197Z,58.85
2023-03-09T21:44:00.282Z,58.96
2023-03-09T21:47:01.569Z,58.93
2023-03-09T21:50:03.180Z,58.97
2023-03-09T21:53:12.657Z,59.02
2023-03-09T21:56:14.134Z,59.07
2023-03-09T21:59:15.626Z,59.14
2023-03-09T22:02:18.712Z,59.17
2023-03-09T22:05:19.804Z,59.28
2023-03-09T22:08:20.850Z,59.34
2023-03-09T22:11:22.668Z,59.36
2023-03-09T22:14:29.340Z,59.31
2023-03-09T22:17:31.112Z,59.22
2023-03-09T22:20:32.145Z,59.12
2023-03-09T22:23:33.190Z,59.08
2023-03-09T22:26:34.776Z,58.90
2023-03-09T22:29:35.714Z,58.75
2023-03-09T22:32:36.847Z,58.73
2023-03-09T22:35:39.724Z,58.75
2023-03-09T22:38:41.730Z,58.88
2023-03-09T22:41:42.980Z,58.99
2023-03-09T22:44:43.912Z,59.02
2023-03-09T22:47:44.784Z,59.07
2023-03-09T22:50:45.677Z,59.09
2023-03-09T22:53:47.697Z,59.17
2023-03-09T22:56:48.635Z,59.20
2023-03-09T22:59:49.579Z,59.25
2023-03-09T23:02:50.501Z,59.27
2023-03-09T23:05:51.359Z,59.30
2023-03-09T23:08:52.336Z,59.32
2023-03-09T23:11:54.121Z,59.26
2023-03-09T23:14:54.998Z,59.39
2023-03-09T23:17:56.128Z,59.46
2023-03-09T23:20:57.016Z,59.53
2023-03-09T23:23:58.724Z,59.67
2023-03-09T23:26:59.653Z,59.67
2023-03-09T23:30:00.512Z,59.64
2023-03-09T23:33:01.423Z,59.74
2023-03-09T23:36:02.829Z,59.76
2023-03-09T23:39:03.728Z,60.04
2023-03-09T23:42:05.317Z,60.09
2023-03-09T23:45:06.728Z,60.12
2023-03-09T23:48:07.616Z,60.08
2023-03-09T23:51:13.687Z,60.26
2023-03-09T23:54:14.947Z,60.30
2023-03-09T23:57:15.801Z,60.55
